KRDG/RDG METAR and TAF weather

Enter ICAO airport designator
Station Type Date Time Source
KRDG METAR 2018/12/13 20:54 UTC NOAA

KRDG 132054Z 03006KT 10SM -RA OVC033 05/01 A3035 RMK AO2 RAB21E36B52 SLP285 P0000 60000 T00500011 53013


Station Type Date Time Source
KRDG Decoded METAR 2018/12/13 20:54 UTC NOAA

READING REGIONAL AIRPORT, PA, United States (KRDG) 40-22N 075-58W 109M
Dec 13, 2018 - 03:54 PM EST / 2018.12.13 2054 UTC
Wind: from the NNE (030 degrees) at 7 MPH (6 KT):0
Visibility: 10 mile(s):0
Sky conditions: overcast
Weather: light rain
Precipitation last hour: A trace
Temperature: 41.0 F (5.0 C)
Dew Point: 34.0 F (1.1 C)
Relative Humidity: 75%
Pressure (altimeter): 30.35 in. Hg (1027 hPa)
Pressure tendency: 0.04 inches (1.3 hPa) higher than three hours ago
ob: KRDG 132054Z 03006KT 10SM -RA OVC033 05/01 A3035 RMK AO2 RAB21E36B52 SLP285 P0000 60000 T00500011 53013
cycle: 21

Station Type Date Time Source
KRDG TAF 2018/12/13 18:22 UTC NOAA

TAF KRDG 131720Z 1318/1418 VRB04KT P6SM SCT025 BKN050
FM140600 VRB03KT P6SM OVC025
FM141000 VRB02KT 5SM BR OVC010
FM141600 VRB02KT P6SM BKN025


Example: see airport list